sensor_id;sensor_type;location;lat;lon;timestamp;pressure;altitude;pressure_sealevel;temperature;humidity
48041;BME280;33815;48.386;11.738;2022-09-24T00:00:18;96343.53;;;6.58;100.00
48041;BME280;33815;48.386;11.738;2022-09-24T00:02:43;96346.38;;;6.55;100.00
48041;BME280;33815;48.386;11.738;2022-09-24T00:05:08;96343.25;;;6.51;100.00
48041;BME280;33815;48.386;11.738;2022-09-24T00:07:33;96344.34;;;6.48;100.00
48041;BME280;33815;48.386;11.738;2022-09-24T00:09:59;96335.06;;;6.46;100.00
48041;BME280;33815;48.386;11.738;2022-09-24T00:12:24;96330.28;;;6.41;100.00
48041;BME280;33815;48.386;11.738;2022-09-24T00:14:50;96339.78;;;6.41;100.00
48041;BME280;33815;48.386;11.738;2022-09-24T00:17:15;96338.03;;;6.41;100.00
48041;BME280;33815;48.386;11.738;2022-09-24T00:19:40;96345.50;;;6.34;100.00
48041;BME280;33815;48.386;11.738;2022-09-24T00:22:06;96338.81;;;6.32;100.00
48041;BME280;33815;48.386;11.738;2022-09-24T00:24:31;96335.78;;;6.27;100.00
48041;BME280;33815;48.386;11.738;2022-09-24T00:27:15;96336.75;;;6.26;100.00
48041;BME280;33815;48.386;11.738;2022-09-24T00:29:40;96332.38;;;6.26;100.00
48041;BME280;33815;48.386;11.738;2022-09-24T00:32:06;96339.06;;;6.29;100.00
48041;BME280;33815;48.386;11.738;2022-09-24T00:34:31;96338.41;;;6.37;100.00
48041;BME280;33815;48.386;11.738;2022-09-24T00:36:56;96332.28;;;6.38;100.00
48041;BME280;33815;48.386;11.738;2022-09-24T00:39:23;96331.63;;;6.36;100.00
48041;BME280;33815;48.386;11.738;2022-09-24T00:41:48;96329.03;;;6.36;100.00
48041;BME280;33815;48.386;11.738;2022-09-24T00:44:41;96337.47;;;6.38;100.00
48041;BME280;33815;48.386;11.738;2022-09-24T00:47:18;96333.09;;;6.38;100.00
48041;BME280;33815;48.386;11.738;2022-09-24T00:49:48;96323.72;;;6.37;100.00
48041;BME280;33815;48.386;11.738;2022-09-24T00:52:15;96326.84;;;6.41;100.00
48041;BME280;33815;48.386;11.738;2022-09-24T00:54:41;96320.88;;;6.40;100.00
48041;BME280;33815;48.386;11.738;2022-09-24T00:57:08;96326.72;;;6.42;100.00
48041;BME280;33815;48.386;11.738;2022-09-24T00:59:33;96315.28;;;6.45;100.00
48041;BME280;33815;48.386;11.738;2022-09-24T01:01:59;96308.91;;;6.49;100.00
48041;BME280;33815;48.386;11.738;2022-09-24T01:04:25;96310.53;;;6.50;100.00
48041;BME280;33815;48.386;11.738;2022-09-24T01:06:51;96312.88;;;6.53;100.00
48041;BME280;33815;48.386;11.738;2022-09-24T01:09:18;96306.63;;;6.56;100.00
48041;BME280;33815;48.386;11.738;2022-09-24T01:12:06;96305.81;;;6.55;100.00
48041;BME280;33815;48.386;11.738;2022-09-24T01:14:57;96298.41;;;6.50;100.00
48041;BME280;33815;48.386;11.738;2022-09-24T01:20:11;96294.56;;;6.45;100.00
48041;BME280;33815;48.386;11.738;2022-09-24T01:22:56;96294.97;;;6.40;100.00
48041;BME280;33815;48.386;11.738;2022-09-24T01:31:00;96300.78;;;6.32;100.00
48041;BME280;33815;48.386;11.738;2022-09-24T01:33:31;96290.44;;;6.32;100.00
48041;BME280;33815;48.386;11.738;2022-09-24T01:35:59;96281.06;;;6.31;100.00
48041;BME280;33815;48.386;11.738;2022-09-24T01:38:34;96276.03;;;6.30;100.00
48041;BME280;33815;48.386;11.738;2022-09-24T01:41:03;96271.22;;;6.25;100.00
48041;BME280;33815;48.386;11.738;2022-09-24T01:43:29;96276.78;;;6.21;100.00
48041;BME280;33815;48.386;11.738;2022-09-24T01:45:56;96275.41;;;6.16;100.00
48041;BME280;33815;48.386;11.738;2022-09-24T01:48:24;96275.69;;;6.13;100.00
48041;BME280;33815;48.386;11.738;2022-09-24T01:51:09;96272.38;;;6.11;100.00
48041;BME280;33815;48.386;11.738;2022-09-24T01:53:44;96274.69;;;6.05;100.00
48041;BME280;33815;48.386;11.738;2022-09-24T01:56:15;96253.78;;;5.96;100.00
48041;BME280;33815;48.386;11.738;2022-09-24T01:58:49;96250.50;;;5.94;100.00
48041;BME280;33815;48.386;11.738;2022-09-24T02:01:20;96257.31;;;5.95;100.00
48041;BME280;33815;48.386;11.738;2022-09-24T02:03:55;96254.06;;;5.93;100.00
48041;BME280;33815;48.386;11.738;2022-09-24T02:06:26;96240.38;;;5.81;100.00
48041;BME280;33815;48.386;11.738;2022-09-24T02:08:55;96250.91;;;5.90;100.00
48041;BME280;33815;48.386;11.738;2022-09-24T02:11:22;96249.13;;;5.90;100.00
48041;BME280;33815;48.386;11.738;2022-09-24T02:14:07;96244.34;;;5.86;100.00
48041;BME280;33815;48.386;11.738;2022-09-24T02:16:37;96247.19;;;5.82;100.00
48041;BME280;33815;48.386;11.738;2022-09-24T02:19:09;96240.91;;;5.75;100.00
48041;BME280;33815;48.386;11.738;2022-09-24T02:21:37;96237.91;;;5.80;100.00
48041;BME280;33815;48.386;11.738;2022-09-24T02:24:11;96236.28;;;5.79;100.00
48041;BME280;33815;48.386;11.738;2022-09-24T02:26:38;96241.72;;;5.76;100.00
48041;BME280;33815;48.386;11.738;2022-09-24T02:29:04;96241.03;;;5.74;100.00
48041;BME280;33815;48.386;11.738;2022-09-24T02:31:32;96235.28;;;5.70;100.00
48041;BME280;33815;48.386;11.738;2022-09-24T02:34:04;96232.69;;;5.70;100.00
48041;BME280;33815;48.386;11.738;2022-09-24T02:36:52;96230.91;;;5.71;100.00
48041;BME280;33815;48.386;11.738;2022-09-24T02:39:19;96226.72;;;5.70;100.00
48041;BME280;33815;48.386;11.738;2022-09-24T02:41:45;96229.97;;;5.72;100.00
48041;BME280;33815;48.386;11.738;2022-09-24T02:44:15;96218.81;;;5.71;100.00
48041;BME280;33815;48.386;11.738;2022-09-24T02:46:41;96224.53;;;5.75;100.00
48041;BME280;33815;48.386;11.738;2022-09-24T02:49:08;96230.69;;;5.74;100.00
48041;BME280;33815;48.386;11.738;2022-09-24T02:51:33;96226.88;;;5.78;100.00
48041;BME280;33815;48.386;11.738;2022-09-24T02:53:59;96225.25;;;5.77;100.00
48041;BME280;33815;48.386;11.738;2022-09-24T02:56:26;96215.97;;;5.74;100.00
48041;BME280;33815;48.386;11.738;2022-09-24T02:58:51;96220.22;;;5.75;100.00
48041;BME280;33815;48.386;11.738;2022-09-24T03:01:17;96218.56;;;5.74;100.00
48041;BME280;33815;48.386;11.738;2022-09-24T03:03:43;96213.25;;;5.76;100.00
48041;BME280;33815;48.386;11.738;2022-09-24T03:06:09;96216.53;;;5.78;100.00
48041;BME280;33815;48.386;11.738;2022-09-24T03:08:36;96218.88;;;5.81;100.00
48041;BME280;33815;48.386;11.738;2022-09-24T03:11:01;96207.56;;;5.82;100.00
48041;BME280;33815;48.386;11.738;2022-09-24T03:13:26;96199.81;;;5.82;100.00
48041;BME280;33815;48.386;11.738;2022-09-24T03:15:52;96197.91;;;5.84;100.00
48041;BME280;33815;48.386;11.738;2022-09-24T03:18:17;96197.66;;;5.87;100.00
48041;BME280;33815;48.386;11.738;2022-09-24T03:20:42;96203.94;;;5.94;100.00
48041;BME280;33815;48.386;11.738;2022-09-24T03:23:07;96197.69;;;5.97;100.00
48041;BME280;33815;48.386;11.738;2022-09-24T03:25:33;96201.94;;;5.98;100.00
48041;BME280;33815;48.386;11.738;2022-09-24T03:27:58;96208.63;;;6.00;100.00
48041;BME280;33815;48.386;11.738;2022-09-24T03:30:23;96210.00;;;6.05;100.00
48041;BME280;33815;48.386;11.738;2022-09-24T03:33:07;96211.50;;;6.07;100.00
48041;BME280;33815;48.386;11.738;2022-09-24T03:35:32;96211.38;;;6.09;100.00
48041;BME280;33815;48.386;11.738;2022-09-24T03:37:57;96212.88;;;6.11;100.00
48041;BME280;33815;48.386;11.738;2022-09-24T03:40:23;96213.56;;;6.13;100.00
48041;BME280;33815;48.386;11.738;2022-09-24T03:42:49;96212.38;;;6.17;100.00
48041;BME280;33815;48.386;11.738;2022-09-24T03:45:14;96220.66;;;6.21;100.00
48041;BME280;33815;48.386;11.738;2022-09-24T03:47:40;96223.00;;;6.24;100.00
48041;BME280;33815;48.386;11.738;2022-09-24T03:50:07;96217.84;;;6.24;100.00
48041;BME280;33815;48.386;11.738;2022-09-24T03:52:35;96208.97;;;6.27;100.00
48041;BME280;33815;48.386;11.738;2022-09-24T03:55:00;96202.19;;;6.26;100.00
48041;BME280;33815;48.386;11.738;2022-09-24T03:57:26;96203.78;;;6.27;100.00
48041;BME280;33815;48.386;11.738;2022-09-24T03:59:51;96207.75;;;6.31;100.00
48041;BME280;33815;48.386;11.738;2022-09-24T04:02:17;96206.81;;;6.32;100.00
48041;BME280;33815;48.386;11.738;2022-09-24T04:04:43;96200.41;;;6.36;100.00
48041;BME280;33815;48.386;11.738;2022-09-24T04:07:08;96195.91;;;6.38;100.00
48041;BME280;33815;48.386;11.738;2022-09-24T04:09:34;96192.66;;;6.36;100.00
48041;BME280;33815;48.386;11.738;2022-09-24T04:11:59;96193.31;;;6.38;100.00
48041;BME280;33815;48.386;11.738;2022-09-24T04:14:24;96190.88;;;6.37;100.00
48041;BME280;33815;48.386;11.738;2022-09-24T04:16:49;96189.13;;;6.37;100.00
48041;BME280;33815;48.386;11.738;2022-09-24T04:19:15;96181.50;;;6.36;100.00
48041;BME280;33815;48.386;11.738;2022-09-24T04:21:41;96187.91;;;6.41;100.00
48041;BME280;33815;48.386;11.738;2022-09-24T04:24:07;96184.19;;;6.44;100.00
48041;BME280;33815;48.386;11.738;2022-09-24T04:26:33;96172.22;;;6.43;100.00
48041;BME280;33815;48.386;11.738;2022-09-24T04:28:58;96169.78;;;6.41;100.00
48041;BME280;33815;48.386;11.738;2022-09-24T04:31:24;96171.53;;;6.41;100.00
48041;BME280;33815;48.386;11.738;2022-09-24T04:33:51;96178.34;;;6.42;100.00
48041;BME280;33815;48.386;11.738;2022-09-24T04:36:17;96175.34;;;6.46;100.00
48041;BME280;33815;48.386;11.738;2022-09-24T04:38:42;96173.59;;;6.47;100.00
48041;BME280;33815;48.386;11.738;2022-09-24T04:41:11;96168.66;;;6.44;100.00
48041;BME280;33815;48.386;11.738;2022-09-24T04:43:36;96169.09;;;6.39;100.00
48041;BME280;33815;48.386;11.738;2022-09-24T04:46:03;96171.13;;;6.36;100.00
48041;BME280;33815;48.386;11.738;2022-09-24T04:48:28;96162.38;;;6.27;100.00
48041;BME280;33815;48.386;11.738;2022-09-24T04:50:54;96153.13;;;6.24;100.00
48041;BME280;33815;48.386;11.738;2022-09-24T04:53:20;96164.44;;;6.33;100.00
48041;BME280;33815;48.386;11.738;2022-09-24T04:55:46;96168.13;;;6.30;100.00
48041;BME280;33815;48.386;11.738;2022-09-24T04:58:11;96176.03;;;6.29;100.00
48041;BME280;33815;48.386;11.738;2022-09-24T05:00:37;96181.47;;;6.26;100.00
48041;BME280;33815;48.386;11.738;2022-09-24T05:03:02;96172.19;;;6.23;100.00
48041;BME280;33815;48.386;11.738;2022-09-24T05:05:28;96179.81;;;6.25;100.00
48041;BME280;33815;48.386;11.738;2022-09-24T05:07:54;96177.09;;;6.26;100.00
48041;BME280;33815;48.386;11.738;2022-09-24T05:10:21;96170.72;;;6.30;100.00
48041;BME280;33815;48.386;11.738;2022-09-24T05:12:46;96177.53;;;6.31;100.00
48041;BME280;33815;48.386;11.738;2022-09-24T05:15:11;96175.88;;;6.30;100.00
48041;BME280;33815;48.386;11.738;2022-09-24T05:17:38;96170.97;;;6.27;100.00
48041;BME280;33815;48.386;11.738;2022-09-24T05:20:03;96166.75;;;6.26;100.00
48041;BME280;33815;48.386;11.738;2022-09-24T05:22:29;96160.63;;;6.27;100.00
48041;BME280;33815;48.386;11.738;2022-09-24T05:24:55;96165.66;;;6.29;100.00
48041;BME280;33815;48.386;11.738;2022-09-24T05:27:21;96164.44;;;6.33;100.00
48041;BME280;33815;48.386;11.738;2022-09-24T05:29:47;96158.88;;;6.38;100.00
48041;BME280;33815;48.386;11.738;2022-09-24T05:32:14;96162.81;;;6.42;100.00
48041;BME280;33815;48.386;11.738;2022-09-24T05:34:42;96163.75;;;6.41;100.00
48041;BME280;33815;48.386;11.738;2022-09-24T05:37:08;96172.63;;;6.48;100.00
48041;BME280;33815;48.386;11.738;2022-09-24T05:39:33;96173.19;;;6.51;100.00
48041;BME280;33815;48.386;11.738;2022-09-24T05:41:59;96174.41;;;6.57;100.00
48041;BME280;33815;48.386;11.738;2022-09-24T05:44:24;96187.09;;;6.60;100.00
48041;BME280;33815;48.386;11.738;2022-09-24T05:46:50;96179.59;;;6.67;100.00
48041;BME280;33815;48.386;11.738;2022-09-24T05:49:16;96179.31;;;6.70;100.00
48041;BME280;33815;48.386;11.738;2022-09-24T05:51:41;96173.88;;;6.73;100.00
48041;BME280;33815;48.386;11.738;2022-09-24T05:54:07;96176.88;;;6.78;100.00
48041;BME280;33815;48.386;11.738;2022-09-24T05:56:32;96177.56;;;6.90;100.00
48041;BME280;33815;48.386;11.738;2022-09-24T05:58:58;96181.91;;;6.99;100.00
48041;BME280;33815;48.386;11.738;2022-09-24T06:01:26;96176.44;;;7.12;100.00
48041;BME280;33815;48.386;11.738;2022-09-24T06:03:54;96171.78;;;7.26;100.00
48041;BME280;33815;48.386;11.738;2022-09-24T06:06:20;96170.28;;;7.33;100.00
48041;BME280;33815;48.386;11.738;2022-09-24T06:08:45;96166.72;;;7.44;100.00
48041;BME280;33815;48.386;11.738;2022-09-24T06:11:10;96174.31;;;7.55;100.00
48041;BME280;33815;48.386;11.738;2022-09-24T06:13:37;96165.66;;;7.64;100.00
48041;BME280;33815;48.386;11.738;2022-09-24T06:16:05;96172.88;;;7.80;100.00
48041;BME280;33815;48.386;11.738;2022-09-24T06:18:39;96176.88;;;8.02;100.00
48041;BME280;33815;48.386;11.738;2022-09-24T06:21:07;96176.47;;;8.25;100.00
48041;BME280;33815;48.386;11.738;2022-09-24T06:23:34;96165.03;;;8.36;100.00
48041;BME280;33815;48.386;11.738;2022-09-24T06:26:00;96164.06;;;8.47;100.00
48041;BME280;33815;48.386;11.738;2022-09-24T06:28:25;96155.53;;;8.54;100.00
48041;BME280;33815;48.386;11.738;2022-09-24T06:30:51;96160.50;;;8.66;100.00
48041;BME280;33815;48.386;11.738;2022-09-24T06:33:16;96173.19;;;8.69;100.00
48041;BME280;33815;48.386;11.738;2022-09-24T06:35:42;96182.91;;;8.85;100.00
48041;BME280;33815;48.386;11.738;2022-09-24T06:38:11;96177.06;;;9.01;100.00
48041;BME280;33815;48.386;11.738;2022-09-24T06:40:37;96176.28;;;9.08;100.00
48041;BME280;33815;48.386;11.738;2022-09-24T06:43:04;96178.88;;;9.08;100.00
48041;BME280;33815;48.386;11.738;2022-09-24T06:45:30;96179.91;;;9.16;100.00
48041;BME280;33815;48.386;11.738;2022-09-24T06:47:56;96182.72;;;9.22;100.00
48041;BME280;33815;48.386;11.738;2022-09-24T06:50:23;96180.72;;;9.34;100.00
48041;BME280;33815;48.386;11.738;2022-09-24T06:52:49;96178.66;;;9.46;100.00
48041;BME280;33815;48.386;11.738;2022-09-24T06:55:15;96188.81;;;9.57;100.00
48041;BME280;33815;48.386;11.738;2022-09-24T06:57:41;96185.72;;;9.54;100.00
48041;BME280;33815;48.386;11.738;2022-09-24T07:00:07;96189.50;;;9.68;100.00
48041;BME280;33815;48.386;11.738;2022-09-24T07:02:32;96183.28;;;9.87;100.00
48041;BME280;33815;48.386;11.738;2022-09-24T07:04:58;96196.50;;;9.93;100.00
48041;BME280;33815;48.386;11.738;2022-09-24T07:07:23;96188.25;;;10.06;100.00
48041;BME280;33815;48.386;11.738;2022-09-24T07:09:55;96176.63;;;10.27;100.00
48041;BME280;33815;48.386;11.738;2022-09-24T07:12:20;96187.09;;;10.43;100.00
48041;BME280;33815;48.386;11.738;2022-09-24T07:14:46;96181.19;;;10.33;100.00
48041;BME280;33815;48.386;11.738;2022-09-24T07:17:11;96188.38;;;10.39;100.00
48041;BME280;33815;48.386;11.738;2022-09-24T07:19:36;96190.84;;;10.41;100.00
48041;BME280;33815;48.386;11.738;2022-09-24T07:22:02;96189.63;;;10.27;100.00
48041;BME280;33815;48.386;11.738;2022-09-24T07:24:28;96189.81;;;10.25;100.00
48041;BME280;33815;48.386;11.738;2022-09-24T07:26:53;96192.72;;;10.31;100.00
48041;BME280;33815;48.386;11.738;2022-09-24T07:29:18;96190.13;;;10.31;100.00
48041;BME280;33815;48.386;11.738;2022-09-24T07:31:43;96194.50;;;10.22;100.00
48041;BME280;33815;48.386;11.738;2022-09-24T07:34:09;96201.00;;;10.18;100.00
48041;BME280;33815;48.386;11.738;2022-09-24T07:36:34;96201.63;;;10.11;100.00
48041;BME280;33815;48.386;11.738;2022-09-24T07:39:00;96200.47;;;10.06;100.00
48041;BME280;33815;48.386;11.738;2022-09-24T07:41:25;96202.88;;;9.99;100.00
48041;BME280;33815;48.386;11.738;2022-09-24T07:43:51;96200.88;;;9.93;100.00
48041;BME280;33815;48.386;11.738;2022-09-24T07:46:16;96196.31;;;9.87;100.00
48041;BME280;33815;48.386;11.738;2022-09-24T07:48:41;96212.06;;;9.85;100.00
48041;BME280;33815;48.386;11.738;2022-09-24T07:51:10;96188.44;;;9.78;100.00
48041;BME280;33815;48.386;11.738;2022-09-24T07:53:35;96207.03;;;9.84;100.00
48041;BME280;33815;48.386;11.738;2022-09-24T07:56:02;96204.59;;;9.82;100.00
48041;BME280;33815;48.386;11.738;2022-09-24T07:58:28;96205.06;;;9.86;100.00
48041;BME280;33815;48.386;11.738;2022-09-24T08:00:56;96205.78;;;9.96;100.00
48041;BME280;33815;48.386;11.738;2022-09-24T08:03:22;96205.00;;;10.04;100.00
48041;BME280;33815;48.386;11.738;2022-09-24T08:05:47;96202.94;;;10.16;100.00
48041;BME280;33815;48.386;11.738;2022-09-24T08:08:13;96211.78;;;10.31;100.00
48041;BME280;33815;48.386;11.738;2022-09-24T08:10:39;96205.84;;;10.47;100.00
48041;BME280;33815;48.386;11.738;2022-09-24T08:13:06;96203.44;;;10.54;100.00
48041;BME280;33815;48.386;11.738;2022-09-24T08:15:31;96212.72;;;10.65;100.00
48041;BME280;33815;48.386;11.738;2022-09-24T08:18:01;96206.91;;;10.79;100.00
48041;BME280;33815;48.386;11.738;2022-09-24T08:20:27;96211.97;;;10.97;100.00
48041;BME280;33815;48.386;11.738;2022-09-24T08:22:53;96214.88;;;11.02;100.00
48041;BME280;33815;48.386;11.738;2022-09-24T08:25:18;96219.16;;;11.11;100.00
48041;BME280;33815;48.386;11.738;2022-09-24T08:27:44;96216.03;;;11.08;100.00
48041;BME280;33815;48.386;11.738;2022-09-24T08:30:09;96212.94;;;10.96;100.00
48041;BME280;33815;48.386;11.738;2022-09-24T08:32:35;96216.88;;;11.00;100.00
48041;BME280;33815;48.386;11.738;2022-09-24T08:35:00;96219.13;;;10.87;100.00
48041;BME280;33815;48.386;11.738;2022-09-24T08:37:26;96224.16;;;10.88;100.00
48041;BME280;33815;48.386;11.738;2022-09-24T08:39:52;96232.16;;;10.87;100.00
48041;BME280;33815;48.386;11.738;2022-09-24T08:42:35;96232.31;;;10.93;100.00
48041;BME280;33815;48.386;11.738;2022-09-24T08:45:05;96228.78;;;11.03;100.00
48041;BME280;33815;48.386;11.738;2022-09-24T08:47:56;96227.94;;;11.10;100.00
48041;BME280;33815;48.386;11.738;2022-09-24T08:50:28;96232.03;;;11.13;100.00
48041;BME280;33815;48.386;11.738;2022-09-24T08:53:01;96227.63;;;11.30;100.00
48041;BME280;33815;48.386;11.738;2022-09-24T08:55:37;96224.03;;;11.31;100.00
48041;BME280;33815;48.386;11.738;2022-09-24T08:58:07;96228.44;;;11.30;100.00
48041;BME280;33815;48.386;11.738;2022-09-24T09:00:43;96223.06;;;11.32;100.00
48041;BME280;33815;48.386;11.738;2022-09-24T09:03:28;96220.13;;;11.52;100.00
48041;BME280;33815;48.386;11.738;2022-09-24T09:09:07;96239.47;;;11.90;100.00
48041;BME280;33815;48.386;11.738;2022-09-24T09:11:36;96240.63;;;11.96;100.00
48041;BME280;33815;48.386;11.738;2022-09-24T09:14:54;96238.47;;;12.08;100.00
48041;BME280;33815;48.386;11.738;2022-09-24T09:17:31;96247.72;;;12.27;100.00
48041;BME280;33815;48.386;11.738;2022-09-24T09:20:02;96245.69;;;12.37;100.00
48041;BME280;33815;48.386;11.738;2022-09-24T09:22:35;96244.75;;;12.30;100.00
48041;BME280;33815;48.386;11.738;2022-09-24T09:25:13;96245.25;;;12.33;100.00
48041;BME280;33815;48.386;11.738;2022-09-24T09:27:40;96250.13;;;12.37;100.00
48041;BME280;33815;48.386;11.738;2022-09-24T09:30:06;96249.66;;;12.33;100.00
48041;BME280;33815;48.386;11.738;2022-09-24T09:35:22;96245.22;;;12.42;100.00
48041;BME280;33815;48.386;11.738;2022-09-24T09:40:44;96242.75;;;12.48;100.00
48041;BME280;33815;48.386;11.738;2022-09-24T09:43:11;96242.53;;;12.58;100.00
48041;BME280;33815;48.386;11.738;2022-09-24T09:48:23;96241.22;;;12.85;100.00
48041;BME280;33815;48.386;11.738;2022-09-24T09:50:53;96227.03;;;13.03;100.00
48041;BME280;33815;48.386;11.738;2022-09-24T09:53:24;96240.84;;;13.20;100.00
48041;BME280;33815;48.386;11.738;2022-09-24T09:55:55;96244.28;;;13.20;100.00
48041;BME280;33815;48.386;11.738;2022-09-24T09:58:24;96246.09;;;13.20;100.00
48041;BME280;33815;48.386;11.738;2022-09-24T10:00:50;96238.06;;;13.22;100.00
48041;BME280;33815;48.386;11.738;2022-09-24T10:03:21;96231.44;;;13.34;100.00
48041;BME280;33815;48.386;11.738;2022-09-24T10:05:52;96228.31;;;13.39;100.00
48041;BME280;33815;48.386;11.738;2022-09-24T10:08:22;96238.28;;;13.35;100.00
48041;BME280;33815;48.386;11.738;2022-09-24T10:10:56;96238.00;;;13.30;100.00
48041;BME280;33815;48.386;11.738;2022-09-24T10:13:22;96243.91;;;13.24;100.00
48041;BME280;33815;48.386;11.738;2022-09-24T10:15:56;96237.56;;;13.18;100.00
48041;BME280;33815;48.386;11.738;2022-09-24T10:18:36;96236.97;;;13.31;100.00
48041;BME280;33815;48.386;11.738;2022-09-24T10:21:08;96241.66;;;13.44;100.00
48041;BME280;33815;48.386;11.738;2022-09-24T10:23:45;96243.06;;;13.31;100.00
48041;BME280;33815;48.386;11.738;2022-09-24T10:26:13;96238.13;;;13.36;100.00
48041;BME280;33815;48.386;11.738;2022-09-24T10:28:49;96244.19;;;13.37;100.00
48041;BME280;33815;48.386;11.738;2022-09-24T10:31:36;96238.16;;;13.51;100.00
48041;BME280;33815;48.386;11.738;2022-09-24T10:34:04;96240.16;;;13.64;100.00
48041;BME280;33815;48.386;11.738;2022-09-24T10:36:49;96243.88;;;13.70;100.00
48041;BME280;33815;48.386;11.738;2022-09-24T10:39:15;96244.88;;;13.69;100.00
48041;BME280;33815;48.386;11.738;2022-09-24T10:41:51;96250.63;;;13.87;100.00
48041;BME280;33815;48.386;11.738;2022-09-24T10:44:18;96235.50;;;13.75;100.00
48041;BME280;33815;48.386;11.738;2022-09-24T10:49:28;96238.38;;;13.65;100.00
48041;BME280;33815;48.386;11.738;2022-09-24T10:52:21;96242.69;;;13.58;100.00
48041;BME280;33815;48.386;11.738;2022-09-24T10:55:23;96235.31;;;13.38;100.00
48041;BME280;33815;48.386;11.738;2022-09-24T10:58:12;96242.03;;;13.32;100.00
48041;BME280;33815;48.386;11.738;2022-09-24T11:06:22;96237.06;;;13.46;100.00
48041;BME280;33815;48.386;11.738;2022-09-24T11:22:16;96235.53;;;13.28;100.00
48041;BME280;33815;48.386;11.738;2022-09-24T11:28:05;96237.47;;;13.34;100.00
48041;BME280;33815;48.386;11.738;2022-09-24T11:30:37;96233.88;;;13.35;100.00
48041;BME280;33815;48.386;11.738;2022-09-24T11:36:16;96229.59;;;13.58;100.00
48041;BME280;33815;48.386;11.738;2022-09-24T11:39:02;96233.84;;;13.59;100.00
48041;BME280;33815;48.386;11.738;2022-09-24T11:41:54;96237.81;;;13.54;100.00
48041;BME280;33815;48.386;11.738;2022-09-24T11:52:48;96230.03;;;13.46;100.00
48041;BME280;33815;48.386;11.738;2022-09-24T11:55:20;96223.25;;;13.52;100.00
48041;BME280;33815;48.386;11.738;2022-09-24T12:01:14;96215.91;;;13.85;100.00
48041;BME280;33815;48.386;11.738;2022-09-24T12:03:48;96213.84;;;13.96;100.00
48041;BME280;33815;48.386;11.738;2022-09-24T12:06:21;96201.28;;;14.06;100.00
48041;BME280;33815;48.386;11.738;2022-09-24T12:09:08;96206.69;;;14.19;100.00
48041;BME280;33815;48.386;11.738;2022-09-24T12:11:41;96197.31;;;14.10;100.00
48041;BME280;33815;48.386;11.738;2022-09-24T12:14:13;96205.25;;;14.17;100.00
48041;BME280;33815;48.386;11.738;2022-09-24T12:16:42;96213.31;;;14.15;100.00
48041;BME280;33815;48.386;11.738;2022-09-24T12:19:30;96209.59;;;13.95;100.00
48041;BME280;33815;48.386;11.738;2022-09-24T12:21:57;96206.44;;;13.84;100.00
48041;BME280;33815;48.386;11.738;2022-09-24T12:24:29;96215.19;;;13.77;100.00
48041;BME280;33815;48.386;11.738;2022-09-24T12:26:59;96216.44;;;13.66;100.00
48041;BME280;33815;48.386;11.738;2022-09-24T12:29:49;96210.63;;;13.56;100.00
48041;BME280;33815;48.386;11.738;2022-09-24T12:33:01;96217.84;;;13.53;100.00
48041;BME280;33815;48.386;11.738;2022-09-24T12:35:41;96202.13;;;13.39;100.00
48041;BME280;33815;48.386;11.738;2022-09-24T12:38:25;96217.50;;;13.57;100.00
48041;BME280;33815;48.386;11.738;2022-09-24T12:43:38;96213.44;;;13.54;100.00
48041;BME280;33815;48.386;11.738;2022-09-24T12:46:11;96214.22;;;13.40;100.00
48041;BME280;33815;48.386;11.738;2022-09-24T12:48:42;96209.03;;;13.31;100.00
48041;BME280;33815;48.386;11.738;2022-09-24T12:51:09;96205.53;;;13.39;100.00
48041;BME280;33815;48.386;11.738;2022-09-24T12:53:37;96203.63;;;13.33;100.00
48041;BME280;33815;48.386;11.738;2022-09-24T12:56:05;96193.78;;;13.35;100.00
48041;BME280;33815;48.386;11.738;2022-09-24T12:58:42;96198.34;;;13.41;100.00
48041;BME280;33815;48.386;11.738;2022-09-24T13:01:26;96189.41;;;13.35;100.00
48041;BME280;33815;48.386;11.738;2022-09-24T13:04:05;96191.50;;;13.32;100.00
48041;BME280;33815;48.386;11.738;2022-09-24T13:06:49;96190.81;;;13.38;100.00
48041;BME280;33815;48.386;11.738;2022-09-24T13:14:40;96189.84;;;13.39;100.00
48041;BME280;33815;48.386;11.738;2022-09-24T13:17:06;96191.66;;;13.39;100.00
48041;BME280;33815;48.386;11.738;2022-09-24T13:19:38;96184.59;;;13.39;100.00
48041;BME280;33815;48.386;11.738;2022-09-24T13:22:05;96192.75;;;13.44;100.00
48041;BME280;33815;48.386;11.738;2022-09-24T13:24:47;96187.22;;;13.39;100.00
48041;BME280;33815;48.386;11.738;2022-09-24T13:27:22;96193.66;;;13.51;100.00
48041;BME280;33815;48.386;11.738;2022-09-24T13:30:01;96194.53;;;13.44;100.00
48041;BME280;33815;48.386;11.738;2022-09-24T13:32:27;96190.41;;;13.49;100.00
48041;BME280;33815;48.386;11.738;2022-09-24T13:34:53;96196.56;;;13.57;100.00
48041;BME280;33815;48.386;11.738;2022-09-24T13:37:21;96190.88;;;13.68;100.00
48041;BME280;33815;48.386;11.738;2022-09-24T13:40:06;96185.28;;;13.71;100.00
48041;BME280;33815;48.386;11.738;2022-09-24T13:42:50;96192.97;;;13.87;100.00
48041;BME280;33815;48.386;11.738;2022-09-24T13:45:19;96188.47;;;13.96;100.00
48041;BME280;33815;48.386;11.738;2022-09-24T13:47:50;96195.31;;;13.97;100.00
48041;BME280;33815;48.386;11.738;2022-09-24T13:53:03;96188.28;;;13.98;100.00
48041;BME280;33815;48.386;11.738;2022-09-24T13:55:42;96186.19;;;14.08;100.00
48041;BME280;33815;48.386;11.738;2022-09-24T13:58:35;96180.94;;;14.08;100.00
48041;BME280;33815;48.386;11.738;2022-09-24T14:01:03;96170.91;;;13.97;100.00
48041;BME280;33815;48.386;11.738;2022-09-24T14:03:33;96177.69;;;14.06;100.00
48041;BME280;33815;48.386;11.738;2022-09-24T14:06:00;96181.41;;;14.12;100.00
48041;BME280;33815;48.386;11.738;2022-09-24T14:08:27;96169.03;;;14.05;100.00